createdAt,value
2019-03-23T00:00:26.693Z,3.30
2019-03-23T00:02:56.313Z,2.60
2019-03-23T00:05:25.859Z,2.53
2019-03-23T00:07:55.364Z,3.30
2019-03-23T00:10:24.901Z,3.23
2019-03-23T00:12:54.409Z,3.33
2019-03-23T00:15:23.936Z,4.40
2019-03-23T00:17:55.080Z,5.03
2019-03-23T00:20:24.563Z,4.37
2019-03-23T00:22:54.092Z,2.83
2019-03-23T00:25:23.590Z,4.53
2019-03-23T00:27:53.069Z,3.70
2019-03-23T00:30:22.586Z,3.97
2019-03-23T00:32:52.159Z,4.30
2019-03-23T00:35:21.670Z,4.50
2019-03-23T00:37:51.122Z,3.83
2019-03-23T00:40:20.753Z,3.93
2019-03-23T00:42:50.303Z,3.30
2019-03-23T00:45:19.799Z,6.40
2019-03-23T00:47:49.419Z,4.30
2019-03-23T00:50:18.877Z,3.70
2019-03-23T00:52:48.355Z,4.43
2019-03-23T00:55:17.845Z,3.47
2019-03-23T00:57:47.365Z,4.17
2019-03-23T01:00:17.150Z,4.47
2019-03-23T01:02:46.631Z,3.97
2019-03-23T01:05:16.566Z,4.23
2019-03-23T01:07:46.091Z,5.40
2019-03-23T01:10:15.992Z,4.57
2019-03-23T01:12:45.624Z,3.80
2019-03-23T01:15:15.552Z,4.67
2019-03-23T01:17:45.010Z,4.43
2019-03-23T01:20:15.458Z,4.17
2019-03-23T01:22:44.854Z,5.70
2019-03-23T01:25:14.583Z,5.13
2019-03-23T01:27:44.031Z,6.60
2019-03-23T01:30:14.894Z,4.90
2019-03-23T01:32:44.472Z,4.37
2019-03-23T01:35:14.082Z,4.47
2019-03-23T01:37:43.567Z,4.50
2019-03-23T01:40:14.935Z,5.67
2019-03-23T01:42:44.419Z,5.37
2019-03-23T01:45:15.119Z,4.73
2019-03-23T01:47:44.605Z,3.80
2019-03-23T01:50:14.512Z,3.97
2019-03-23T01:52:44.127Z,5.67
2019-03-23T01:55:14.058Z,5.40
2019-03-23T01:57:43.677Z,4.83
2019-03-23T02:00:14.611Z,5.97
2019-03-23T02:02:44.174Z,5.37
2019-03-23T02:05:13.768Z,5.10
2019-03-23T02:07:43.329Z,5.10
2019-03-23T02:10:13.553Z,5.03
2019-03-23T02:12:43.178Z,6.43
2019-03-23T02:15:13.698Z,5.83
2019-03-23T02:17:43.150Z,6.67
2019-03-23T02:20:14.246Z,6.77
2019-03-23T02:22:44.707Z,6.67
2019-03-23T02:25:14.343Z,7.03
2019-03-23T02:27:43.875Z,5.30
2019-03-23T02:30:14.271Z,7.33
2019-03-23T02:32:44.035Z,8.20
2019-03-23T02:35:13.676Z,6.43
2019-03-23T02:37:43.172Z,6.83
2019-03-23T02:40:13.185Z,8.07
2019-03-23T02:42:42.647Z,7.13
2019-03-23T02:45:13.951Z,6.40
2019-03-23T02:47:43.454Z,6.70
2019-03-23T02:50:13.209Z,5.00
2019-03-23T02:52:42.662Z,5.80
2019-03-23T02:55:12.853Z,6.87
2019-03-23T02:57:42.340Z,16.90
2019-03-23T03:00:14.516Z,24.40
2019-03-23T03:02:45.181Z,24.03
2019-03-23T03:05:14.882Z,21.23
2019-03-23T03:07:44.368Z,15.23
2019-03-23T03:10:36.359Z,24.80
2019-03-23T03:13:05.984Z,23.67
2019-03-23T03:15:35.513Z,22.70
2019-03-23T03:18:06.918Z,26.50
2019-03-23T03:20:36.467Z,30.00
2019-03-23T03:23:06.017Z,24.73
2019-03-23T03:25:37.118Z,20.37
2019-03-23T03:28:06.752Z,35.00
2019-03-23T03:30:36.440Z,43.20
2019-03-23T03:33:06.019Z,46.53
2019-03-23T03:35:37.183Z,52.00
2019-03-23T03:38:06.655Z,56.53
2019-03-23T03:40:36.225Z,62.53
2019-03-23T03:43:05.766Z,58.40
2019-03-23T03:45:35.332Z,60.93
2019-03-23T03:48:04.856Z,65.00
2019-03-23T03:50:34.405Z,64.70
2019-03-23T03:53:03.977Z,64.93
2019-03-23T03:55:33.454Z,65.13
2019-03-23T03:58:02.943Z,64.00
2019-03-23T04:00:32.485Z,66.67
2019-03-23T04:03:01.982Z,73.20
2019-03-23T04:05:31.527Z,69.73
2019-03-23T04:08:11.093Z,81.43
2019-03-23T04:10:32.197Z,67.90
2019-03-23T04:13:01.712Z,73.33
2019-03-23T04:15:31.257Z,69.50
2019-03-23T04:18:02.377Z,77.33
2019-03-23T04:20:31.873Z,73.17
2019-03-23T04:23:01.336Z,72.53
2019-03-23T04:25:30.819Z,64.33
2019-03-23T04:28:00.295Z,65.23
2019-03-23T04:30:29.855Z,69.70
2019-03-23T04:32:59.319Z,66.13
2019-03-23T04:35:28.832Z,63.90
2019-03-23T04:37:58.465Z,65.57
2019-03-23T04:40:27.954Z,71.87
2019-03-23T04:42:57.513Z,68.00
2019-03-23T04:45:27.011Z,65.73
2019-03-23T04:47:56.504Z,73.10
2019-03-23T04:50:25.968Z,67.60
2019-03-23T04:52:55.459Z,62.07
2019-03-23T04:55:25.007Z,72.87
2019-03-23T04:57:54.634Z,64.23
2019-03-23T05:00:24.202Z,63.27
2019-03-23T05:02:53.706Z,70.20
2019-03-23T05:05:23.184Z,69.67
2019-03-23T05:07:52.655Z,61.33
2019-03-23T05:10:22.156Z,70.50
2019-03-23T05:12:51.689Z,71.57
2019-03-23T05:15:21.275Z,78.13
2019-03-23T05:17:50.755Z,73.67
2019-03-23T05:20:30.098Z,74.17
2019-03-23T05:22:59.890Z,70.93
2019-03-23T05:25:30.821Z,66.90
2019-03-23T05:28:00.371Z,67.80
2019-03-23T05:30:29.909Z,70.40
2019-03-23T05:32:59.509Z,75.20
2019-03-23T05:35:28.984Z,67.67
2019-03-23T05:37:58.475Z,68.37
2019-03-23T05:40:28.016Z,69.73
2019-03-23T05:42:57.505Z,66.50
2019-03-23T05:45:26.978Z,67.23
2019-03-23T05:47:56.468Z,71.97
2019-03-23T05:50:25.965Z,76.67
2019-03-23T05:52:55.429Z,68.20
2019-03-23T05:55:24.921Z,65.43
2019-03-23T05:57:54.425Z,59.03
2019-03-23T06:00:23.920Z,71.33
2019-03-23T06:02:53.423Z,67.60
2019-03-23T06:05:24.668Z,66.60
2019-03-23T06:07:54.153Z,66.23
2019-03-23T06:10:23.596Z,76.17
2019-03-23T06:12:53.073Z,61.37
2019-03-23T06:15:22.603Z,57.77
2019-03-23T06:17:52.077Z,72.20
2019-03-23T06:20:21.571Z,68.93
2019-03-23T06:22:51.037Z,82.53
2019-03-23T06:25:20.693Z,77.13
2019-03-23T06:27:50.145Z,69.40
2019-03-23T06:30:19.643Z,66.77
2019-03-23T06:32:49.168Z,73.13
2019-03-23T06:35:18.745Z,73.07
2019-03-23T06:37:48.214Z,75.23
2019-03-23T06:40:17.768Z,79.60
2019-03-23T06:42:47.344Z,80.20
2019-03-23T06:45:16.921Z,71.60
2019-03-23T06:47:48.058Z,79.30
2019-03-23T06:50:17.644Z,72.93
2019-03-23T06:52:47.186Z,73.17
2019-03-23T06:55:16.683Z,68.50
2019-03-23T06:57:46.183Z,68.93
2019-03-23T07:00:17.493Z,80.97
2019-03-23T07:02:47.131Z,88.40
2019-03-23T07:05:16.709Z,87.07
2019-03-23T07:07:46.209Z,85.67
2019-03-23T07:10:16.615Z,82.60
2019-03-23T07:12:46.117Z,81.03
2019-03-23T07:15:20.290Z,79.80
2019-03-23T07:17:46.901Z,84.47
2019-03-23T07:20:16.517Z,77.17
2019-03-23T07:22:46.130Z,87.70
2019-03-23T07:25:15.788Z,85.67
2019-03-23T07:27:45.295Z,87.43
2019-03-23T07:30:17.307Z,85.70
2019-03-23T07:32:46.963Z,80.47
2019-03-23T07:35:17.018Z,90.40
2019-03-23T07:37:46.478Z,80.27
2019-03-23T07:40:16.277Z,84.13
2019-03-23T07:42:45.839Z,82.67
2019-03-23T07:45:36.962Z,89.13
2019-03-23T07:48:06.478Z,85.43
2019-03-23T07:50:35.972Z,75.80
2019-03-23T07:53:05.982Z,80.30
2019-03-23T07:55:35.563Z,73.37
2019-03-23T07:58:05.114Z,82.97
2019-03-23T08:00:34.639Z,81.00
2019-03-23T08:03:04.112Z,91.47
2019-03-23T08:05:33.605Z,69.43
2019-03-23T08:08:03.085Z,73.27
2019-03-23T08:10:35.720Z,79.63
2019-03-23T08:13:05.441Z,72.60
2019-03-23T08:15:35.016Z,72.97
2019-03-23T08:18:04.496Z,69.10
2019-03-23T08:20:34.096Z,68.43
2019-03-23T08:23:03.655Z,70.07
2019-03-23T08:25:33.211Z,75.47
2019-03-23T08:28:02.788Z,71.40
2019-03-23T08:30:32.360Z,75.03
2019-03-23T08:33:01.893Z,60.60
2019-03-23T08:35:31.410Z,64.33
2019-03-23T08:38:00.894Z,70.13
2019-03-23T08:40:30.418Z,59.67
2019-03-23T08:42:59.978Z,57.37
2019-03-23T08:45:29.560Z,60.87
2019-03-23T08:47:59.060Z,56.03
2019-03-23T08:50:28.650Z,58.23
2019-03-23T08:52:58.138Z,69.40
2019-03-23T08:55:27.649Z,58.77
2019-03-23T08:57:57.222Z,51.50
2019-03-23T09:00:26.764Z,49.53
2019-03-23T09:02:56.354Z,58.57
2019-03-23T09:05:25.904Z,50.07
2019-03-23T09:07:55.498Z,53.90
2019-03-23T09:10:24.982Z,47.93
2019-03-23T09:12:54.477Z,58.73
2019-03-23T09:15:24.011Z,49.60
2019-03-23T09:17:53.545Z,52.00
2019-03-23T09:20:23.085Z,48.67
2019-03-23T09:22:52.602Z,53.43
2019-03-23T09:25:22.065Z,50.93
2019-03-23T09:27:51.577Z,54.63
2019-03-23T09:30:21.219Z,54.07
2019-03-23T09:32:50.724Z,49.77
2019-03-23T09:35:20.219Z,47.57
2019-03-23T09:37:49.730Z,46.00
2019-03-23T09:40:19.360Z,50.57
2019-03-23T09:42:48.856Z,42.90
2019-03-23T09:45:18.626Z,46.20
2019-03-23T09:47:48.093Z,42.50
2019-03-23T09:50:17.745Z,40.33
2019-03-23T09:52:47.221Z,48.17
2019-03-23T09:55:16.726Z,48.13
2019-03-23T09:57:46.238Z,45.47
2019-03-23T10:00:15.890Z,43.33
2019-03-23T10:02:45.404Z,44.00
2019-03-23T10:05:14.956Z,42.70
2019-03-23T10:07:44.457Z,47.13
2019-03-23T10:10:21.640Z,44.40
2019-03-23T10:12:45.317Z,45.57
2019-03-23T10:15:14.880Z,47.13
2019-03-23T10:17:44.375Z,41.63
2019-03-23T10:20:14.254Z,45.13
2019-03-23T10:22:43.729Z,44.77
2019-03-23T10:25:13.318Z,37.60
2019-03-23T10:27:42.798Z,45.77
2019-03-23T10:30:31.679Z,43.40
2019-03-23T10:33:01.183Z,41.47
2019-03-23T10:35:30.659Z,47.03
2019-03-23T10:38:00.184Z,45.10
2019-03-23T10:40:32.816Z,42.13
2019-03-23T10:43:01.070Z,39.10
2019-03-23T10:45:30.660Z,45.10
2019-03-23T10:48:00.181Z,41.83
2019-03-23T10:50:29.667Z,39.67
2019-03-23T10:52:59.262Z,40.53
2019-03-23T10:55:28.827Z,39.20
2019-03-23T10:57:58.380Z,41.53
2019-03-23T11:00:27.879Z,41.07
2019-03-23T11:03:16.789Z,41.57
2019-03-23T11:05:46.366Z,43.00
2019-03-23T11:08:15.919Z,41.17
2019-03-23T11:10:45.436Z,39.90
2019-03-23T11:13:14.983Z,44.50
2019-03-23T11:15:44.507Z,42.13
2019-03-23T11:18:13.987Z,42.57
2019-03-23T11:20:43.554Z,43.27
2019-03-23T11:23:13.040Z,44.33
2019-03-23T11:25:42.586Z,39.80
2019-03-23T11:28:12.080Z,40.97
2019-03-23T11:30:41.546Z,44.67
2019-03-23T11:33:11.065Z,43.50
2019-03-23T11:35:40.565Z,47.77
2019-03-23T11:38:10.096Z,46.43
2019-03-23T11:40:39.569Z,39.00
2019-03-23T11:43:09.080Z,41.23
2019-03-23T11:45:38.596Z,43.93
2019-03-23T11:48:08.091Z,39.03
2019-03-23T11:50:37.636Z,39.70
2019-03-23T11:53:07.145Z,38.87
2019-03-23T11:55:36.638Z,40.73
2019-03-23T11:58:06.303Z,38.90
2019-03-23T12:00:35.983Z,38.70
2019-03-23T12:03:05.615Z,39.60
2019-03-23T12:05:35.112Z,41.13
2019-03-23T12:08:04.676Z,41.00
2019-03-23T12:10:34.174Z,44.00
2019-03-23T12:13:23.042Z,40.73
2019-03-23T12:15:52.577Z,40.90
2019-03-23T12:18:22.088Z,38.73
2019-03-23T12:20:51.568Z,37.70
2019-03-23T12:23:21.084Z,36.17
2019-03-23T12:25:50.564Z,37.57
2019-03-23T12:28:20.049Z,33.37
2019-03-23T12:30:49.576Z,35.53
2019-03-23T12:33:21.360Z,37.40
2019-03-23T12:35:50.347Z,40.20
2019-03-23T12:38:19.867Z,36.27
2019-03-23T12:40:49.382Z,38.10
2019-03-23T12:43:18.879Z,34.70
2019-03-23T12:45:48.430Z,32.10
2019-03-23T12:48:17.979Z,32.03
2019-03-23T12:50:47.637Z,34.63
2019-03-23T12:53:17.156Z,32.90
2019-03-23T12:55:46.627Z,36.00
2019-03-23T12:58:16.117Z,34.80
2019-03-23T13:00:45.635Z,32.53
2019-03-23T13:03:15.114Z,33.00
2019-03-23T13:05:44.592Z,33.20
2019-03-23T13:08:14.134Z,36.33
2019-03-23T13:10:43.657Z,32.03
2019-03-23T13:13:13.160Z,33.23
2019-03-23T13:15:42.660Z,34.40
2019-03-23T13:18:12.235Z,34.37
2019-03-23T13:20:41.728Z,32.43
2019-03-23T13:23:12.714Z,34.13
2019-03-23T13:25:42.453Z,33.57
2019-03-23T13:28:11.962Z,33.37
2019-03-23T13:30:41.510Z,34.00
2019-03-23T13:33:11.007Z,32.53
2019-03-23T13:35:59.936Z,36.03
2019-03-23T13:38:29.435Z,34.47
2019-03-23T13:40:59.020Z,32.63
2019-03-23T13:43:28.506Z,33.87
2019-03-23T13:45:58.048Z,36.17
2019-03-23T13:48:27.514Z,34.50
2019-03-23T13:50:57.011Z,35.57
2019-03-23T13:53:26.528Z,35.07
2019-03-23T13:55:56.010Z,33.33
2019-03-23T13:58:25.526Z,37.37
2019-03-23T14:00:55.007Z,31.80
2019-03-23T14:03:24.536Z,33.30
2019-03-23T14:05:54.052Z,32.50
2019-03-23T14:08:23.538Z,30.00
2019-03-23T14:11:12.510Z,32.40
2019-03-23T14:13:42.006Z,33.17
2019-03-23T14:16:11.533Z,34.17
2019-03-23T14:18:41.070Z,35.37
2019-03-23T14:21:10.658Z,36.10
2019-03-23T14:23:40.193Z,36.07
2019-03-23T14:26:09.884Z,32.93
2019-03-23T14:28:39.384Z,35.23
2019-03-23T14:31:08.898Z,29.03
2019-03-23T14:33:40.158Z,34.20
2019-03-23T14:36:09.619Z,31.83
2019-03-23T14:38:39.157Z,35.70
2019-03-23T14:41:08.671Z,33.63
2019-03-23T14:43:38.150Z,27.87
2019-03-23T14:46:07.659Z,29.63
2019-03-23T14:48:37.154Z,29.27
2019-03-23T14:51:06.797Z,30.97
2019-03-23T14:53:36.267Z,31.67
2019-03-23T14:56:05.907Z,26.07
2019-03-23T14:58:35.392Z,29.73
2019-03-23T15:01:05.033Z,29.43
2019-03-23T15:03:34.548Z,26.93
2019-03-23T15:06:04.099Z,29.40
2019-03-23T15:08:33.650Z,31.73
2019-03-23T15:11:03.167Z,28.70
2019-03-23T15:13:32.671Z,30.23
2019-03-23T15:16:02.220Z,28.57
2019-03-23T15:18:31.721Z,32.53
2019-03-23T15:21:01.305Z,30.87
2019-03-23T15:23:30.766Z,32.27
2019-03-23T15:26:00.265Z,31.50
2019-03-23T15:28:31.396Z,32.43
2019-03-23T15:31:00.943Z,30.10
2019-03-23T15:33:30.396Z,30.93
2019-03-23T15:35:59.893Z,33.70
2019-03-23T15:38:29.432Z,32.30
2019-03-23T15:40:58.961Z,34.37
2019-03-23T15:43:28.677Z,30.27
2019-03-23T15:45:58.157Z,29.30
2019-03-23T15:48:28.694Z,32.70
2019-03-23T15:50:58.439Z,35.87
2019-03-23T15:53:27.948Z,29.93
2019-03-23T15:55:57.421Z,31.23
2019-03-23T15:58:26.899Z,30.13
2019-03-23T16:00:56.470Z,29.13
2019-03-23T16:03:25.940Z,31.53
2019-03-23T16:05:55.449Z,30.60
2019-03-23T16:08:25.073Z,28.93
2019-03-23T16:10:54.548Z,34.37
2019-03-23T16:13:24.068Z,34.43
2019-03-23T16:15:53.635Z,29.43
2019-03-23T16:18:23.223Z,30.93
2019-03-23T16:20:52.724Z,31.63
2019-03-23T16:23:22.302Z,29.93
2019-03-23T16:25:51.868Z,31.53
2019-03-23T16:28:21.485Z,31.17
2019-03-23T16:30:51.075Z,33.00
2019-03-23T16:33:20.564Z,29.73
2019-03-23T16:35:50.244Z,30.07
2019-03-23T16:38:19.766Z,33.23
2019-03-23T16:40:49.382Z,30.57
2019-03-23T16:43:18.927Z,33.23
2019-03-23T16:45:48.439Z,33.60
2019-03-23T16:48:17.995Z,29.40
2019-03-23T16:50:47.591Z,32.57
2019-03-23T16:53:17.094Z,29.07
2019-03-23T16:55:46.607Z,32.87
2019-03-23T16:58:16.563Z,32.17
2019-03-23T17:00:46.198Z,32.43
2019-03-23T17:03:15.745Z,29.10
2019-03-23T17:05:45.394Z,25.90
2019-03-23T17:08:14.933Z,30.40
2019-03-23T17:10:44.472Z,30.37
2019-03-23T17:13:14.105Z,29.07
2019-03-23T17:15:43.664Z,30.13
2019-03-23T17:18:13.153Z,31.00
2019-03-23T17:20:43.227Z,30.90
2019-03-23T17:23:12.741Z,31.43
2019-03-23T17:25:42.284Z,31.23
2019-03-23T17:28:11.882Z,33.13
2019-03-23T17:30:41.395Z,34.03
2019-03-23T17:33:10.895Z,36.13
2019-03-23T17:35:40.453Z,30.67
2019-03-23T17:38:09.971Z,30.10
2019-03-23T17:40:39.551Z,31.17
2019-03-23T17:43:09.157Z,34.17
2019-03-23T17:45:38.737Z,36.13
2019-03-23T17:48:08.231Z,35.73
2019-03-23T17:50:37.778Z,33.57
2019-03-23T17:53:07.318Z,32.30
2019-03-23T17:55:37.779Z,34.17
2019-03-23T17:58:07.357Z,34.80
2019-03-23T18:00:36.892Z,34.33
2019-03-23T18:03:06.420Z,32.30
2019-03-23T18:05:36.007Z,32.40
2019-03-23T18:08:05.730Z,32.60
2019-03-23T18:10:35.277Z,33.13
2019-03-23T18:13:04.887Z,30.27
2019-03-23T18:15:34.356Z,31.23
2019-03-23T18:18:03.864Z,32.07
2019-03-23T18:20:33.374Z,31.83
2019-03-23T18:23:02.936Z,29.67
2019-03-23T18:25:32.521Z,34.03
2019-03-23T18:28:02.183Z,32.37
2019-03-23T18:30:38.393Z,29.90
2019-03-23T18:33:08.089Z,30.23
2019-03-23T18:35:37.702Z,31.27
2019-03-23T18:38:07.504Z,28.90
2019-03-23T18:40:37.486Z,29.37
2019-03-23T18:43:07.520Z,27.80
2019-03-23T18:45:37.269Z,32.43
2019-03-23T18:48:07.147Z,34.67
2019-03-23T18:50:36.747Z,33.10
2019-03-23T18:53:06.391Z,29.33
2019-03-23T18:55:36.023Z,29.07
2019-03-23T18:58:05.907Z,32.50
2019-03-23T19:00:41.466Z,31.00
2019-03-23T19:03:30.239Z,29.90
2019-03-23T19:05:59.794Z,33.57
2019-03-23T19:08:29.336Z,30.47
2019-03-23T19:10:58.822Z,29.00
2019-03-23T19:13:37.585Z,33.27
2019-03-23T19:15:59.627Z,31.33
2019-03-23T19:18:29.265Z,31.27
2019-03-23T19:20:58.744Z,30.20
2019-03-23T19:23:28.247Z,32.93
2019-03-23T19:25:57.722Z,31.77
2019-03-23T19:28:27.242Z,30.43
2019-03-23T19:30:58.257Z,31.33
2019-03-23T19:33:27.867Z,31.23
2019-03-23T19:35:57.363Z,32.57
2019-03-23T19:38:26.952Z,29.90
2019-03-23T19:40:56.431Z,31.17
2019-03-23T19:43:25.947Z,29.47
2019-03-23T19:45:55.525Z,24.97
2019-03-23T19:48:25.156Z,26.20
2019-03-23T19:50:54.715Z,28.63
2019-03-23T19:53:24.310Z,30.07
2019-03-23T19:55:53.872Z,34.70
2019-03-23T19:58:23.408Z,30.03
2019-03-23T20:00:53.013Z,32.43
2019-03-23T20:03:22.486Z,33.03
2019-03-23T20:05:52.103Z,25.90
2019-03-23T20:08:21.570Z,31.53
2019-03-23T20:10:51.034Z,33.97
2019-03-23T20:13:20.573Z,32.40
2019-03-23T20:15:50.102Z,34.07
2019-03-23T20:18:19.595Z,32.03
2019-03-23T20:20:49.100Z,29.93
2019-03-23T20:23:18.619Z,28.70
2019-03-23T20:25:48.098Z,31.40
2019-03-23T20:28:19.051Z,29.43
2019-03-23T20:30:48.632Z,25.87
2019-03-23T20:33:19.612Z,28.43
2019-03-23T20:35:49.437Z,29.77
2019-03-23T20:38:18.953Z,30.77
2019-03-23T20:40:48.477Z,27.40
2019-03-23T20:43:17.998Z,25.90
2019-03-23T20:45:48.015Z,28.07
2019-03-23T20:48:18.328Z,29.27
2019-03-23T20:50:48.225Z,31.90
2019-03-23T20:53:19.360Z,26.60
2019-03-23T20:55:48.894Z,26.97
2019-03-23T20:58:18.412Z,25.13
2019-03-23T21:00:47.971Z,26.03
2019-03-23T21:03:17.468Z,26.60
2019-03-23T21:05:46.955Z,23.40
2019-03-23T21:08:16.519Z,26.50
2019-03-23T21:10:46.156Z,32.23
2019-03-23T21:13:15.741Z,34.23
2019-03-23T21:15:45.288Z,31.27
2019-03-23T21:18:14.751Z,29.93
2019-03-23T21:20:44.245Z,26.43
2019-03-23T21:23:13.793Z,26.53
2019-03-23T21:25:43.304Z,24.90
2019-03-23T21:28:15.821Z,24.37
2019-03-23T21:30:45.331Z,28.70
2019-03-23T21:33:14.832Z,26.47
2019-03-23T21:35:44.336Z,26.13
2019-03-23T21:38:13.821Z,30.00
2019-03-23T21:40:43.465Z,30.47
2019-03-23T21:43:12.938Z,29.97
2019-03-23T21:45:42.583Z,28.43
2019-03-23T21:48:12.101Z,26.77
2019-03-23T21:50:47.491Z,26.30
2019-03-23T21:53:12.895Z,36.10
2019-03-23T21:55:42.373Z,30.10
2019-03-23T21:58:11.950Z,33.50
2019-03-23T22:00:41.535Z,31.30
2019-03-23T22:03:11.015Z,27.23
2019-03-23T22:05:40.600Z,29.23
2019-03-23T22:08:10.173Z,32.20
2019-03-23T22:10:39.799Z,33.63
2019-03-23T22:13:09.372Z,37.77
2019-03-23T22:15:38.997Z,38.63
2019-03-23T22:18:08.549Z,36.23
2019-03-23T22:20:38.050Z,34.87
2019-03-23T22:23:07.629Z,35.00
2019-03-23T22:25:37.107Z,38.10
2019-03-23T22:28:06.751Z,38.87
2019-03-23T22:30:36.374Z,36.90
2019-03-23T22:33:05.996Z,37.33
2019-03-23T22:35:35.723Z,34.70
2019-03-23T22:38:05.440Z,31.93
2019-03-23T22:40:35.027Z,36.70
2019-03-23T22:43:04.572Z,34.50
2019-03-23T22:45:35.789Z,33.07
2019-03-23T22:48:05.517Z,31.43
2019-03-23T22:50:35.110Z,32.50
2019-03-23T22:53:04.686Z,29.80
2019-03-23T22:55:34.191Z,29.77
2019-03-23T22:58:03.706Z,29.60
2019-03-23T23:00:43.863Z,30.33
2019-03-23T23:03:13.640Z,27.30
2019-03-23T23:05:43.317Z,29.73
2019-03-23T23:08:12.977Z,28.03
2019-03-23T23:10:42.522Z,27.17
2019-03-23T23:13:12.211Z,27.33
2019-03-23T23:15:41.864Z,28.20
2019-03-23T23:18:11.438Z,25.87
2019-03-23T23:20:40.941Z,27.67
2019-03-23T23:23:10.416Z,27.47
2019-03-23T23:25:39.920Z,23.33
2019-03-23T23:28:09.520Z,24.03
2019-03-23T23:30:39.010Z,26.00
2019-03-23T23:33:08.556Z,26.43
2019-03-23T23:35:38.038Z,22.00
2019-03-23T23:38:07.522Z,23.83
2019-03-23T23:40:37.036Z,28.00
2019-03-23T23:43:06.570Z,24.73
2019-03-23T23:45:36.131Z,24.00
2019-03-23T23:48:05.808Z,23.93
2019-03-23T23:50:35.316Z,23.17
2019-03-23T23:53:04.943Z,24.80
2019-03-23T23:55:34.568Z,23.13
2019-03-23T23:58:04.225Z,23.40
